Wetterdaten: Woche 13.09.04 - 19.09.04 (KW38)
Datum Zeit Temperatur Luftfeuchte Luftdruck Niederschlag Taupunkt Windchill Wind
13.09.2004 00:00 13,1 C 82 % 1020 hPa 0,0 l/m 10,1 C 13,1 C 0,0 km/h (0 Bft)
13.09.2004 17:00 21,0 C 46 % 1014 hPa 0,0 l/m 8,9 C 18,3 C 16,4 km/h (3 Bft)
13.09.2004 18:00 20,2 C 51 % 1014 hPa 0,0 l/m 9,7 C 19,1 C 8,5 km/h (2 Bft)
13.09.2004 19:00 17,8 C 63 % 1014 hPa 0,0 l/m 10,7 C 17,8 C 0,0 km/h (0 Bft)
13.09.2004 20:00 16,4 C 70 % 1015 hPa 0,0 l/m 10,9 C 16,4 C 0,0 km/h (0 Bft)
13.09.2004 21:00 15,5 C 74 % 1015 hPa 0,0 l/m 10,9 C 15,5 C 0,0 km/h (0 Bft)
13.09.2004 22:00 14,7 C 79 % 1015 hPa 0,0 l/m 11,1 C 14,7 C 0,0 km/h (0 Bft)
13.09.2004 23:00 13,9 C 82 % 1015 hPa 0,0 l/m 10,9 C 13,9 C 0,0 km/h (0 Bft)
14.09.2004 00:00 13,5 C 87 % 1015 hPa 0,0 l/m 11,3 C 13,5 C 1,3 km/h (1 Bft)
14.09.2004 01:00 13,3 C 88 % 1015 hPa 0,0 l/m 11,3 C 13,3 C 0,0 km/h (0 Bft)
14.09.2004 02:00 12,7 C 89 % 1015 hPa 0,0 l/m 11,0 C 12,7 C 0,0 km/h (0 Bft)
14.09.2004 03:00 12,4 C 91 % 1015 hPa 0,0 l/m 11,0 C 12,4 C 0,0 km/h (0 Bft)
14.09.2004 04:00 12,4 C 92 % 1015 hPa 0,0 l/m 11,1 C 12,1 C 1,5 km/h (1 Bft)
14.09.2004 05:00 14,0 C 93 % 1015 hPa 1,0 l/m 13,0 C 11,7 C 12,9 km/h (3 Bft)
14.09.2004 06:00 14,3 C 93 % 1015 hPa 0,0 l/m 13,2 C 12,6 C 11,5 km/h (2 Bft)
14.09.2004 07:00 14,5 C 91 % 1015 hPa 0,0 l/m 13,0 C 11,4 C 14,3 km/h (3 Bft)
14.09.2004 08:00 14,7 C 94 % 1015 hPa 0,0 l/m 13,7 C 12,6 C 12,4 km/h (3 Bft)
14.09.2004 09:00 15,4 C 91 % 1015 hPa 0,0 l/m 13,9 C 13,7 C 10,9 km/h (2 Bft)
14.09.2004 10:00 15,8 C 92 % 1016 hPa 0,0 l/m 14,5 C 14,9 C 7,4 km/h (2 Bft)
14.09.2004 11:00 16,9 C 79 % 1016 hPa 0,0 l/m 13,2 C 14,1 C 16,3 km/h (3 Bft)
14.09.2004 12:00 17,6 C 72 % 1015 hPa 0,0 l/m 12,5 C 15,9 C 12,7 km/h (3 Bft)
14.09.2004 13:00 18,0 C 69 % 1015 hPa 0,0 l/m 12,2 C 16,7 C 10,5 km/h (2 Bft)
14.09.2004 14:00 18,9 C 68 % 1014 hPa 0,0 l/m 12,9 C 18,1 C 7,8 km/h (2 Bft)
14.09.2004 15:00 19,9 C 65 % 1014 hPa 0,0 l/m 13,1 C 18,0 C 13,1 km/h (3 Bft)
14.09.2004 16:00 19,3 C 67 % 1014 hPa 0,0 l/m 13,0 C 17,5 C 13,4 km/h (3 Bft)
14.09.2004 17:00 18,1 C 73 % 1014 hPa 0,0 l/m 13,2 C 15,3 C 16,1 km/h (3 Bft)
14.09.2004 18:00 17,2 C 79 % 1013 hPa 0,0 l/m 13,4 C 14,3 C 15,9 km/h (3 Bft)
14.09.2004 19:00 16,0 C 86 % 1014 hPa 1,0 l/m 13,7 C 14,5 C 11,0 km/h (2 Bft)
14.09.2004 20:00 15,2 C 92 % 1015 hPa 0,0 l/m 13,9 C 14,9 C 6,1 km/h (2 Bft)
14.09.2004 21:00 14,8 C 96 % 1015 hPa 1,0 l/m 14,1 C 14,3 C 6,1 km/h (2 Bft)
14.09.2004 22:00 14,6 C 98 % 1015 hPa 0,0 l/m 14,3 C 12,3 C 11,9 km/h (2 Bft)
14.09.2004 23:00 14,7 C 98 % 1016 hPa 0,0 l/m 14,4 C 12,3 C 12,6 km/h (3 Bft)
15.09.2004 00:00 14,6 C 98 % 1016 hPa 0,0 l/m 14,3 C 13,1 C 10,3 km/h (2 Bft)
15.09.2004 01:00 14,3 C 98 % 1016 hPa 0,0 l/m 14,0 C 13,7 C 6,0 km/h (2 Bft)
15.09.2004 02:00 14,2 C 98 % 1016 hPa 0,0 l/m 13,8 C 13,8 C 5,2 km/h (1 Bft)
15.09.2004 03:00 14,1 C 98 % 1017 hPa 1,0 l/m 13,8 C 13,6 C 5,0 km/h (1 Bft)
15.09.2004 04:00 13,7 C 98 % 1017 hPa 0,0 l/m 13,4 C 13,7 C 0,2 km/h (0 Bft)
15.09.2004 05:00 13,5 C 98 % 1017 hPa 2,0 l/m 13,2 C 12,6 C 8,9 km/h (2 Bft)
15.09.2004 06:00 12,5 C 96 % 1018 hPa 0,0 l/m 11,8 C 11,6 C 7,7 km/h (2 Bft)
15.09.2004 07:00 12,2 C 97 % 1018 hPa 1,0 l/m 11,8 C 10,9 C 9,4 km/h (2 Bft)
15.09.2004 08:00 12,4 C 98 % 1018 hPa 0,0 l/m 12,1 C 9,5 C 12,8 km/h (3 Bft)
15.09.2004 09:00 12,6 C 98 % 1019 hPa 0,0 l/m 12,3 C 10,4 C 11,1 km/h (2 Bft)
15.09.2004 10:00 13,1 C 97 % 1020 hPa 0,0 l/m 12,6 C 12,3 C 8,7 km/h (2 Bft)
15.09.2004 11:00 13,8 C 93 % 1020 hPa 0,0 l/m 12,6 C 12,6 C 9,1 km/h (2 Bft)
15.09.2004 12:00 14,2 C 86 % 1020 hPa 0,0 l/m 11,8 C 12,6 C 11,0 km/h (2 Bft)
15.09.2004 13:00 14,5 C 83 % 1020 hPa 0,0 l/m 11,6 C 12,0 C 13,4 km/h (3 Bft)
15.09.2004 14:00 14,8 C 82 % 1020 hPa 0,0 l/m 11,6 C 11,1 C 16,6 km/h (3 Bft)
15.09.2004 15:00 14,8 C 82 % 1019 hPa 0,0 l/m 11,8 C 10,8 C 17,5 km/h (3 Bft)
15.09.2004 16:00 14,7 C 83 % 1019 hPa 0,0 l/m 11,9 C 9,5 C 22,3 km/h (4 Bft)
15.09.2004 17:00 14,8 C 79 % 1020 hPa 0,0 l/m 11,3 C 11,0 C 17,4 km/h (3 Bft)
15.09.2004 18:00 14,1 C 81 % 1020 hPa 0,0 l/m 10,9 C 11,4 C 13,3 km/h (3 Bft)
15.09.2004 19:00 13,2 C 87 % 1020 hPa 0,0 l/m 11,0 C 11,7 C 10,6 km/h (2 Bft)
15.09.2004 20:00 12,4 C 90 % 1022 hPa 4,0 l/m 10,9 C 11,1 C 8,5 km/h (2 Bft)
15.09.2004 21:00 11,9 C 94 % 1022 hPa 0,0 l/m 11,0 C 11,9 C 0,0 km/h (0 Bft)
15.09.2004 22:00 11,0 C 95 % 1022 hPa 0,0 l/m 10,2 C 11,0 C 0,0 km/h (0 Bft)
15.09.2004 23:00 10,5 C 96 % 1023 hPa 0,0 l/m 9,9 C 10,5 C 0,0 km/h (0 Bft)
16.09.2004 00:00 10,6 C 97 % 1023 hPa 0,0 l/m 10,2 C 10,6 C 0,0 km/h (0 Bft)
16.09.2004 01:00 10,5 C 98 % 1023 hPa 0,0 l/m 10,2 C 10,5 C 0,0 km/h (0 Bft)
16.09.2004 02:00 10,4 C 98 % 1023 hPa 0,0 l/m 10,1 C 10,4 C 0,0 km/h (0 Bft)
16.09.2004 03:00 9,8 C 98 % 1023 hPa 0,0 l/m 9,5 C 9,7 C 1,4 km/h (1 Bft)
16.09.2004 04:00 9,4 C 98 % 1023 hPa 0,0 l/m 9,1 C 9,3 C 2,2 km/h (1 Bft)
16.09.2004 05:00 9,3 C 98 % 1023 hPa 0,0 l/m 9,0 C 9,3 C 0,5 km/h (0 Bft)
16.09.2004 06:00 9,4 C 98 % 1024 hPa 0,0 l/m 9,1 C 8,6 C 5,4 km/h (1 Bft)
16.09.2004 07:00 9,3 C 98 % 1024 hPa 0,0 l/m 9,0 C 9,1 C 3,5 km/h (1 Bft)
16.09.2004 08:00 9,5 C 98 % 1024 hPa 0,0 l/m 9,2 C 9,4 C 0,5 km/h (0 Bft)
16.09.2004 09:00 10,3 C 97 % 1025 hPa 0,0 l/m 9,8 C 8,3 C 10,4 km/h (2 Bft)
16.09.2004 10:00 11,2 C 86 % 1026 hPa 0,0 l/m 9,0 C 7,6 C 14,6 km/h (3 Bft)
16.09.2004 11:00 12,6 C 75 % 1026 hPa 0,0 l/m 8,3 C 8,8 C 14,9 km/h (3 Bft)
16.09.2004 12:00 14,8 C 63 % 1026 hPa 0,0 l/m 7,8 C 12,0 C 13,9 km/h (3 Bft)
16.09.2004 13:00 16,3 C 54 % 1025 hPa 0,0 l/m 7,0 C 12,9 C 16,4 km/h (3 Bft)
16.09.2004 14:00 17,1 C 49 % 1025 hPa 0,0 l/m 6,3 C 14,2 C 14,8 km/h (3 Bft)
16.09.2004 15:00 16,7 C 48 % 1025 hPa 0,0 l/m 5,6 C 13,8 C 14,5 km/h (3 Bft)
16.09.2004 16:00 16,0 C 50 % 1024 hPa 0,0 l/m 5,5 C 13,4 C 13,5 km/h (3 Bft)
16.09.2004 17:00 15,4 C 53 % 1024 hPa 0,0 l/m 6,0 C 12,9 C 12,4 km/h (3 Bft)
16.09.2004 18:00 15,0 C 55 % 1025 hPa 0,0 l/m 6,1 C 14,0 C 6,8 km/h (2 Bft)
16.09.2004 19:00 14,2 C 61 % 1025 hPa 0,0 l/m 6,8 C 13,9 C 5,2 km/h (1 Bft)
16.09.2004 20:00 12,2 C 70 % 1025 hPa 0,0 l/m 6,9 C 12,2 C 0,3 km/h (0 Bft)
16.09.2004 21:00 10,8 C 78 % 1025 hPa 0,0 l/m 7,1 C 10,8 C 1,7 km/h (1 Bft)
16.09.2004 22:00 9,9 C 82 % 1025 hPa 0,0 l/m 7,0 C 9,3 C 7,2 km/h (2 Bft)
16.09.2004 23:00 9,1 C 84 % 1025 hPa 0,0 l/m 6,6 C 8,7 C 5,6 km/h (1 Bft)
17.09.2004 00:00 8,6 C 87 % 1025 hPa 0,0 l/m 6,5 C 6,8 C 9,5 km/h (2 Bft)
17.09.2004 01:00 8,2 C 90 % 1025 hPa 0,0 l/m 6,7 C 6,8 C 8,8 km/h (2 Bft)
17.09.2004 02:00 7,8 C 92 % 1025 hPa 0,0 l/m 6,5 C 6,5 C 8,6 km/h (2 Bft)
17.09.2004 03:00 7,7 C 94 % 1025 hPa 0,0 l/m 6,7 C 4,6 C 12,0 km/h (2 Bft)
17.09.2004 04:00 7,3 C 93 % 1025 hPa 0,0 l/m 6,3 C 4,3 C 11,3 km/h (2 Bft)
17.09.2004 05:00 6,7 C 94 % 1025 hPa 0,0 l/m 5,8 C 5,5 C 6,7 km/h (2 Bft)
17.09.2004 06:00 6,1 C 95 % 1025 hPa 0,0 l/m 5,3 C 5,7 C 3,9 km/h (1 Bft)
17.09.2004 07:00 6,1 C 97 % 1025 hPa 0,0 l/m 5,7 C 3,2 C 11,5 km/h (2 Bft)
17.09.2004 08:00 7,2 C 98 % 1025 hPa 0,0 l/m 6,9 C 6,2 C 7,4 km/h (2 Bft)
17.09.2004 09:00 8,6 C 96 % 1025 hPa 0,0 l/m 8,0 C 6,0 C 10,5 km/h (2 Bft)
17.09.2004 10:00 10,6 C 84 % 1025 hPa 0,0 l/m 8,0 C 7,6 C 12,3 km/h (3 Bft)
17.09.2004 11:00 13,8 C 69 % 1025 hPa 0,0 l/m 8,2 C 10,7 C 13,9 km/h (3 Bft)
17.09.2004 12:00 15,8 C 62 % 1025 hPa 0,0 l/m 8,5 C 12,9 C 15,2 km/h (3 Bft)
17.09.2004 13:00 17,9 C 54 % 1024 hPa 0,0 l/m 8,5 C 15,5 C 13,9 km/h (3 Bft)
17.09.2004 14:00 19,5 C 48 % 1024 hPa 0,0 l/m 8,2 C 17,2 C 14,5 km/h (3 Bft)
17.09.2004 15:00 20,0 C 45 % 1024 hPa 0,0 l/m 7,6 C 17,3 C 17,0 km/h (3 Bft)
17.09.2004 16:00 18,5 C 47 % 1023 hPa 0,0 l/m 6,9 C 16,5 C 12,8 km/h (3 Bft)
17.09.2004 17:00 18,4 C 46 % 1023 hPa 0,0 l/m 6,7 C 16,3 C 13,2 km/h (3 Bft)
17.09.2004 18:00 17,7 C 48 % 1023 hPa 0,0 l/m 6,5 C 16,3 C 10,2 km/h (2 Bft)
17.09.2004 19:00 15,5 C 58 % 1023 hPa 0,0 l/m 7,2 C 15,4 C 2,0 km/h (1 Bft)
17.09.2004 20:00 12,5 C 72 % 1023 hPa 0,0 l/m 7,7 C 12,5 C 0,0 km/h (0 Bft)
17.09.2004 21:00 11,2 C 79 % 1023 hPa 0,0 l/m 7,7 C 11,1 C 1,4 km/h (1 Bft)
17.09.2004 22:00 10,5 C 81 % 1023 hPa 0,0 l/m 7,3 C 10,5 C 1,5 km/h (1 Bft)
17.09.2004 23:00 10,0 C 82 % 1023 hPa 0,0 l/m 7,2 C 9,4 C 6,2 km/h (2 Bft)
18.09.2004 00:00 9,6 C 83 % 1023 hPa 0,0 l/m 6,8 C 8,8 C 5,8 km/h (1 Bft)
18.09.2004 01:00 8,9 C 85 % 1022 hPa 0,0 l/m 6,5 C 8,6 C 4,6 km/h (1 Bft)
18.09.2004 02:00 8,1 C 87 % 1022 hPa 0,0 l/m 6,1 C 8,1 C 0,2 km/h (0 Bft)
18.09.2004 03:00 7,3 C 90 % 1022 hPa 0,0 l/m 5,8 C 7,3 C 0,0 km/h (0 Bft)
18.09.2004 04:00 6,9 C 93 % 1022 hPa 0,0 l/m 5,9 C 6,9 C 0,0 km/h (0 Bft)
18.09.2004 05:00 6,0 C 94 % 1021 hPa 0,0 l/m 5,0 C 6,0 C 0,0 km/h (0 Bft)
18.09.2004 06:00 5,4 C 95 % 1021 hPa 0,0 l/m 4,6 C 5,4 C 0,0 km/h (0 Bft)
18.09.2004 07:00 4,9 C 96 % 1022 hPa 0,0 l/m 4,3 C 4,9 C 0,0 km/h (0 Bft)
18.09.2004 08:00 6,0 C 97 % 1021 hPa 0,0 l/m 5,5 C 6,0 C 0,0 km/h (0 Bft)
18.09.2004 09:00 8,4 C 98 % 1021 hPa 0,0 l/m 8,1 C 8,4 C 0,0 km/h (0 Bft)
18.09.2004 10:00 10,5 C 98 % 1021 hPa 0,0 l/m 10,2 C 10,0 C 5,7 km/h (1 Bft)
18.09.2004 11:00 13,8 C 91 % 1021 hPa 0,0 l/m 12,3 C 13,3 C 7,4 km/h (2 Bft)
18.09.2004 12:00 17,7 C 69 % 1021 hPa 0,0 l/m 11,9 C 17,0 C 8,6 km/h (2 Bft)
18.09.2004 13:00 20,2 C 58 % 1020 hPa 0,0 l/m 11,6 C 19,0 C 11,2 km/h (2 Bft)
18.09.2004 14:00 21,9 C 50 % 1020 hPa 0,0 l/m 11,1 C 20,7 C 11,6 km/h (2 Bft)
18.09.2004 15:00 22,0 C 50 % 1019 hPa 0,0 l/m 11,0 C 20,8 C 11,7 km/h (2 Bft)
18.09.2004 16:00 21,1 C 50 % 1019 hPa 0,0 l/m 10,2 C 19,4 C 12,9 km/h (3 Bft)
18.09.2004 17:00 20,6 C 46 % 1018 hPa 0,0 l/m 8,6 C 18,7 C 13,5 km/h (3 Bft)
18.09.2004 18:00 19,2 C 51 % 1018 hPa 0,0 l/m 8,7 C 18,5 C 6,1 km/h (2 Bft)
18.09.2004 19:00 16,4 C 63 % 1018 hPa 0,0 l/m 9,4 C 16,4 C 0,0 km/h (0 Bft)
18.09.2004 20:00 14,1 C 72 % 1018 hPa 0,0 l/m 9,2 C 14,1 C 0,0 km/h (0 Bft)
18.09.2004 21:00 12,5 C 81 % 1018 hPa 0,0 l/m 9,4 C 12,5 C 0,0 km/h (0 Bft)
18.09.2004 22:00 11,4 C 85 % 1018 hPa 0,0 l/m 9,0 C 11,4 C 0,0 km/h (0 Bft)
18.09.2004 23:00 10,4 C 89 % 1018 hPa 0,0 l/m 8,7 C 10,4 C 0,0 km/h (0 Bft)
19.09.2004 00:00 9,5 C 91 % 1018 hPa 0,0 l/m 8,2 C 9,5 C 0,0 km/h (0 Bft)
19.09.2004 01:00 8,9 C 93 % 1018 hPa 0,0 l/m 7,8 C 8,9 C 0,0 km/h (0 Bft)
19.09.2004 02:00 8,4 C 94 % 1018 hPa 0,0 l/m 7,6 C 8,4 C 0,0 km/h (0 Bft)
19.09.2004 03:00 8,0 C 95 % 1018 hPa 0,0 l/m 7,3 C 8,0 C 0,0 km/h (0 Bft)
19.09.2004 04:00 7,6 C 97 % 1018 hPa 0,0 l/m 7,1 C 7,6 C 0,0 km/h (0 Bft)
19.09.2004 05:00 7,2 C 97 % 1018 hPa 0,0 l/m 6,7 C 7,2 C 0,0 km/h (0 Bft)
19.09.2004 06:00 7,2 C 98 % 1018 hPa 0,0 l/m 6,9 C 7,2 C 0,0 km/h (0 Bft)
19.09.2004 07:00 7,9 C 98 % 1018 hPa 0,0 l/m 7,6 C 7,9 C 0,0 km/h (0 Bft)
19.09.2004 08:00 9,6 C 98 % 1019 hPa 0,0 l/m 9,3 C 9,3 C 2,5 km/h (1 Bft)
19.09.2004 09:00 12,8 C 98 % 1019 hPa 0,0 l/m 12,5 C 11,1 C 9,5 km/h (2 Bft)
19.09.2004 10:00 16,9 C 82 % 1019 hPa 0,0 l/m 13,7 C 15,4 C 11,2 km/h (2 Bft)
19.09.2004 11:00 18,0 C 61 % 1019 hPa 0,0 l/m 10,4 C 16,1 C 12,7 km/h (3 Bft)
19.09.2004 12:00 19,2 C 53 % 1019 hPa 0,0 l/m 9,5 C 17,1 C 14,2 km/h (3 Bft)
19.09.2004 13:00 20,3 C 52 % 1019 hPa 0,0 l/m 10,1 C 19,0 C 10,8 km/h (2 Bft)
19.09.2004 14:00 19,8 C 56 % 1019 hPa 0,0 l/m 10,7 C 17,5 C 15,1 km/h (3 Bft)
19.09.2004 15:00 18,0 C 66 % 1019 hPa 0,0 l/m 11,5 C 16,3 C 11,8 km/h (2 Bft)
19.09.2004 16:00 17,2 C 72 % 1019 hPa 0,0 l/m 12,0 C 16,4 C 8,7 km/h (2 Bft)
19.09.2004 17:00 16,2 C 82 % 1019 hPa 0,0 l/m 13,0 C 15,9 C 4,7 km/h (1 Bft)
19.09.2004 18:00 15,4 C 90 % 1019 hPa 0,0 l/m 13,8 C 15,2 C 3,3 km/h (1 Bft)
19.09.2004 19:00 15,1 C 93 % 1020 hPa 1,0 l/m 13,9 C 15,1 C 0,4 km/h (0 Bft)
19.09.2004 20:00 14,6 C 96 % 1020 hPa 0,0 l/m 14,0 C 14,6 C 0,7 km/h (0 Bft)
19.09.2004 21:00 14,4 C 97 % 1020 hPa 0,0 l/m 13,9 C 14,4 C 0,7 km/h (0 Bft)
19.09.2004 22:00 14,1 C 98 % 1020 hPa 0,0 l/m 13,8 C 14,1 C 1,9 km/h (1 Bft)
19.09.2004 23:00 14,1 C 98 % 1020 hPa 1,0 l/m 13,8 C 14,1 C 0,0 km/h (0 Bft)
Min-Datum _ 18.09.04 17.09.04 14.09.04 - 16.09.04 17.09.04 13.09.04
_ Min-Zeit 07:25 15:05 18:00 - 15:11 07:37 00:00
Minimum _ 4,7 C 44 % 1013 hPa - 4,0 C 0,4 C 0,0 km/h (0 Bft)
Max-Datum _ 18.09.04 14.09.04 16.09.04 15.09.04 19.09.04 18.09.04 15.09.04
_ Max-Zeit 14:59 22:16 10:40 20:04 10:16 15:02 17:02
Maximum _ 22,3 C 98 % 1026 hPa 4,0 l/m 15,6 C 22,3 C 35,8 km/h
S-SW (5 Bft)
Durchschnitt _ 13,3 C 82 % 1020 hPa #13,0 l/m 9,9 C 12,2 C 7,1 km/h (2 Bft)

Durchschnitt Minimum Temp.12,7 C
Durchschnitt Maximum Temp.14,0 C